sensor_id;sensor_type;location;lat;lon;timestamp;pressure;altitude;pressure_sealevel;temperature;humidity
25944;BME280;13742;49.306;8.636;2024-02-28T00:00:43;100621.23;;;6.42;87.06
25944;BME280;13742;49.306;8.636;2024-02-28T00:02:43;100616.05;;;6.49;86.86
25944;BME280;13742;49.306;8.636;2024-02-28T00:03:43;100618.75;;;6.47;87.00
25944;BME280;13742;49.306;8.636;2024-02-28T00:04:43;100620.64;;;6.46;86.95
25944;BME280;13742;49.306;8.636;2024-02-28T00:05:43;100622.29;;;6.33;87.10
25944;BME280;13742;49.306;8.636;2024-02-28T00:06:43;100622.88;;;6.31;87.39
25944;BME280;13742;49.306;8.636;2024-02-28T00:07:43;100618.69;;;6.35;87.55
25944;BME280;13742;49.306;8.636;2024-02-28T00:08:43;100619.89;;;6.37;87.40
25944;BME280;13742;49.306;8.636;2024-02-28T00:09:43;100620.91;;;6.41;87.19
25944;BME280;13742;49.306;8.636;2024-02-28T00:10:43;100618.92;;;6.42;87.03
25944;BME280;13742;49.306;8.636;2024-02-28T00:11:43;100618.66;;;6.41;86.55
25944;BME280;13742;49.306;8.636;2024-02-28T00:12:43;100616.84;;;6.38;86.32
25944;BME280;13742;49.306;8.636;2024-02-28T00:13:43;100617.67;;;6.36;86.35
25944;BME280;13742;49.306;8.636;2024-02-28T00:14:43;100618.59;;;6.39;86.48
25944;BME280;13742;49.306;8.636;2024-02-28T00:15:43;100618.30;;;6.41;86.59
25944;BME280;13742;49.306;8.636;2024-02-28T00:16:43;100617.41;;;6.42;86.41
25944;BME280;13742;49.306;8.636;2024-02-28T00:17:43;100619.73;;;6.42;86.57
25944;BME280;13742;49.306;8.636;2024-02-28T00:18:43;100615.02;;;6.41;86.47
25944;BME280;13742;49.306;8.636;2024-02-28T00:19:43;100616.78;;;6.42;86.22
25944;BME280;13742;49.306;8.636;2024-02-28T00:20:46;100618.26;;;6.39;86.36
25944;BME280;13742;49.306;8.636;2024-02-28T00:21:43;100621.26;;;6.39;86.43
25944;BME280;13742;49.306;8.636;2024-02-28T00:22:44;100622.00;;;6.37;86.68
25944;BME280;13742;49.306;8.636;2024-02-28T00:23:43;100622.91;;;6.38;86.61
25944;BME280;13742;49.306;8.636;2024-02-28T00:24:43;100624.05;;;6.39;86.53
25944;BME280;13742;49.306;8.636;2024-02-28T00:25:43;100626.36;;;6.36;86.50
25944;BME280;13742;49.306;8.636;2024-02-28T00:26:43;100626.54;;;6.37;86.51
25944;BME280;13742;49.306;8.636;2024-02-28T00:27:43;100624.67;;;6.37;86.17
25944;BME280;13742;49.306;8.636;2024-02-28T00:28:43;100627.00;;;6.39;86.36
25944;BME280;13742;49.306;8.636;2024-02-28T00:29:43;100625.34;;;6.39;86.21
25944;BME280;13742;49.306;8.636;2024-02-28T00:30:43;100633.69;;;6.40;85.93
25944;BME280;13742;49.306;8.636;2024-02-28T00:31:43;100634.04;;;6.41;86.16
25944;BME280;13742;49.306;8.636;2024-02-28T00:32:43;100634.63;;;6.37;85.88
25944;BME280;13742;49.306;8.636;2024-02-28T00:33:43;100635.61;;;6.35;86.16
25944;BME280;13742;49.306;8.636;2024-02-28T00:34:43;100637.13;;;6.32;86.42
25944;BME280;13742;49.306;8.636;2024-02-28T00:35:43;100634.70;;;6.25;86.42
25944;BME280;13742;49.306;8.636;2024-02-28T00:36:43;100636.17;;;6.29;86.69
25944;BME280;13742;49.306;8.636;2024-02-28T00:37:43;100634.97;;;6.13;86.82
25944;BME280;13742;49.306;8.636;2024-02-28T00:38:43;100635.81;;;6.16;87.21
25944;BME280;13742;49.306;8.636;2024-02-28T00:39:44;100634.70;;;6.19;87.13
25944;BME280;13742;49.306;8.636;2024-02-28T00:40:43;100630.45;;;6.19;87.24
25944;BME280;13742;49.306;8.636;2024-02-28T00:41:43;100631.76;;;6.19;87.14
25944;BME280;13742;49.306;8.636;2024-02-28T00:42:43;100632.86;;;6.22;86.94
25944;BME280;13742;49.306;8.636;2024-02-28T00:43:43;100631.00;;;6.18;86.80
25944;BME280;13742;49.306;8.636;2024-02-28T00:44:43;100630.77;;;6.19;86.61
25944;BME280;13742;49.306;8.636;2024-02-28T00:45:44;100634.38;;;6.19;86.68
25944;BME280;13742;49.306;8.636;2024-02-28T00:46:43;100635.53;;;6.19;86.35
25944;BME280;13742;49.306;8.636;2024-02-28T00:47:43;100638.25;;;6.19;86.46
25944;BME280;13742;49.306;8.636;2024-02-28T00:48:43;100636.34;;;6.18;86.24
25944;BME280;13742;49.306;8.636;2024-02-28T00:49:43;100639.08;;;6.18;86.06
25944;BME280;13742;49.306;8.636;2024-02-28T00:50:43;100636.66;;;6.17;85.87
25944;BME280;13742;49.306;8.636;2024-02-28T00:51:43;100635.69;;;6.18;85.92
25944;BME280;13742;49.306;8.636;2024-02-28T00:52:43;100631.98;;;6.18;86.22
25944;BME280;13742;49.306;8.636;2024-02-28T00:53:43;100634.63;;;6.18;85.99
25944;BME280;13742;49.306;8.636;2024-02-28T00:54:43;100638.16;;;6.17;85.93
25944;BME280;13742;49.306;8.636;2024-02-28T00:55:43;100639.91;;;6.17;85.88
25944;BME280;13742;49.306;8.636;2024-02-28T00:56:43;100637.45;;;6.16;85.70
25944;BME280;13742;49.306;8.636;2024-02-28T00:57:43;100635.11;;;6.18;85.88
25944;BME280;13742;49.306;8.636;2024-02-28T00:58:46;100634.50;;;6.17;85.84
25944;BME280;13742;49.306;8.636;2024-02-28T00:59:44;100639.03;;;6.17;85.74
25944;BME280;13742;49.306;8.636;2024-02-28T01:00:43;100641.50;;;6.16;85.69
25944;BME280;13742;49.306;8.636;2024-02-28T01:01:43;100640.69;;;6.18;85.52
25944;BME280;13742;49.306;8.636;2024-02-28T01:02:43;100639.13;;;6.18;85.35
25944;BME280;13742;49.306;8.636;2024-02-28T01:03:43;100640.92;;;6.20;85.63
25944;BME280;13742;49.306;8.636;2024-02-28T01:04:43;100640.84;;;6.18;85.44
25944;BME280;13742;49.306;8.636;2024-02-28T01:05:43;100638.13;;;6.20;85.68
25944;BME280;13742;49.306;8.636;2024-02-28T01:06:43;100637.55;;;6.19;85.49
25944;BME280;13742;49.306;8.636;2024-02-28T01:07:43;100635.85;;;6.18;85.31
25944;BME280;13742;49.306;8.636;2024-02-28T01:08:43;100634.92;;;6.19;85.46
25944;BME280;13742;49.306;8.636;2024-02-28T01:09:44;100636.87;;;6.20;85.41
25944;BME280;13742;49.306;8.636;2024-02-28T01:10:43;100634.28;;;6.18;85.39
25944;BME280;13742;49.306;8.636;2024-02-28T01:11:43;100637.38;;;6.19;85.30
25944;BME280;13742;49.306;8.636;2024-02-28T01:12:43;100636.28;;;6.19;85.22
25944;BME280;13742;49.306;8.636;2024-02-28T01:13:43;100639.88;;;6.19;85.15
25944;BME280;13742;49.306;8.636;2024-02-28T01:14:43;100638.41;;;6.19;85.21
25944;BME280;13742;49.306;8.636;2024-02-28T01:15:43;100640.92;;;6.20;85.34
25944;BME280;13742;49.306;8.636;2024-02-28T01:16:43;100642.03;;;6.20;85.24
25944;BME280;13742;49.306;8.636;2024-02-28T01:17:43;100639.36;;;6.18;85.32
25944;BME280;13742;49.306;8.636;2024-02-28T01:18:43;100642.90;;;6.18;85.04
25944;BME280;13742;49.306;8.636;2024-02-28T01:19:43;100637.39;;;6.17;85.32
25944;BME280;13742;49.306;8.636;2024-02-28T01:20:43;100638.98;;;6.17;85.24
25944;BME280;13742;49.306;8.636;2024-02-28T01:21:43;100641.78;;;6.16;85.25
25944;BME280;13742;49.306;8.636;2024-02-28T01:22:43;100641.08;;;6.15;85.15
25944;BME280;13742;49.306;8.636;2024-02-28T01:23:43;100641.84;;;6.15;85.47
25944;BME280;13742;49.306;8.636;2024-02-28T01:24:43;100643.69;;;6.16;85.60
25944;BME280;13742;49.306;8.636;2024-02-28T01:25:43;100647.75;;;6.14;85.39
25944;BME280;13742;49.306;8.636;2024-02-28T01:26:43;100648.39;;;6.10;85.51
25944;BME280;13742;49.306;8.636;2024-02-28T01:27:43;100649.23;;;6.08;85.46
25944;BME280;13742;49.306;8.636;2024-02-28T01:28:43;100652.80;;;6.02;85.81
25944;BME280;13742;49.306;8.636;2024-02-28T01:29:43;100653.05;;;5.98;86.13
25944;BME280;13742;49.306;8.636;2024-02-28T01:30:43;100654.19;;;5.87;86.48
25944;BME280;13742;49.306;8.636;2024-02-28T01:31:43;100651.34;;;5.83;87.07
25944;BME280;13742;49.306;8.636;2024-02-28T01:32:43;100648.77;;;5.67;87.45
25944;BME280;13742;49.306;8.636;2024-02-28T01:33:43;100655.28;;;5.63;87.88
25944;BME280;13742;49.306;8.636;2024-02-28T01:34:43;100649.52;;;5.61;88.27
25944;BME280;13742;49.306;8.636;2024-02-28T01:35:43;100652.41;;;5.61;88.57
25944;BME280;13742;49.306;8.636;2024-02-28T01:36:43;100656.47;;;5.61;88.46
25944;BME280;13742;49.306;8.636;2024-02-28T01:37:43;100656.13;;;5.61;88.65
25944;BME280;13742;49.306;8.636;2024-02-28T01:38:43;100659.78;;;5.59;88.77
25944;BME280;13742;49.306;8.636;2024-02-28T01:39:43;100658.20;;;5.56;88.65
25944;BME280;13742;49.306;8.636;2024-02-28T01:40:45;100661.86;;;5.60;88.50
25944;BME280;13742;49.306;8.636;2024-02-28T01:42:43;100658.72;;;5.63;88.27
25944;BME280;13742;49.306;8.636;2024-02-28T01:43:43;100661.33;;;5.66;88.09
25944;BME280;13742;49.306;8.636;2024-02-28T01:44:43;100661.53;;;5.68;88.36
25944;BME280;13742;49.306;8.636;2024-02-28T01:45:43;100663.16;;;5.69;88.01
25944;BME280;13742;49.306;8.636;2024-02-28T01:46:43;100665.67;;;5.71;87.96
25944;BME280;13742;49.306;8.636;2024-02-28T01:47:43;100669.05;;;5.72;87.89
25944;BME280;13742;49.306;8.636;2024-02-28T01:48:43;100668.69;;;5.74;87.78
25944;BME280;13742;49.306;8.636;2024-02-28T01:49:43;100670.94;;;5.74;87.59
25944;BME280;13742;49.306;8.636;2024-02-28T01:50:43;100673.74;;;5.75;87.56
25944;BME280;13742;49.306;8.636;2024-02-28T01:51:43;100673.98;;;5.76;87.55
25944;BME280;13742;49.306;8.636;2024-02-28T01:52:43;100673.86;;;5.76;87.28
25944;BME280;13742;49.306;8.636;2024-02-28T01:53:44;100676.48;;;5.76;87.20
25944;BME280;13742;49.306;8.636;2024-02-28T01:54:43;100674.84;;;5.76;87.07
25944;BME280;13742;49.306;8.636;2024-02-28T01:55:43;100676.55;;;5.75;87.03
25944;BME280;13742;49.306;8.636;2024-02-28T01:56:43;100672.31;;;5.73;86.72
25944;BME280;13742;49.306;8.636;2024-02-28T01:57:43;100672.83;;;5.74;86.69
25944;BME280;13742;49.306;8.636;2024-02-28T01:58:46;100673.25;;;5.75;86.77
25944;BME280;13742;49.306;8.636;2024-02-28T01:59:43;100668.84;;;5.76;86.70
25944;BME280;13742;49.306;8.636;2024-02-28T02:00:43;100669.55;;;5.76;86.63
25944;BME280;13742;49.306;8.636;2024-02-28T02:01:43;100673.09;;;5.77;86.58
25944;BME280;13742;49.306;8.636;2024-02-28T02:02:43;100673.67;;;5.78;86.63
25944;BME280;13742;49.306;8.636;2024-02-28T02:03:43;100673.61;;;5.78;86.40
25944;BME280;13742;49.306;8.636;2024-02-28T02:04:43;100673.67;;;5.78;86.49
25944;BME280;13742;49.306;8.636;2024-02-28T02:05:43;100675.63;;;5.77;86.41
25944;BME280;13742;49.306;8.636;2024-02-28T02:06:43;100674.47;;;5.77;86.39
25944;BME280;13742;49.306;8.636;2024-02-28T02:07:43;100676.91;;;5.77;86.21
25944;BME280;13742;49.306;8.636;2024-02-28T02:08:43;100678.40;;;5.76;85.95
25944;BME280;13742;49.306;8.636;2024-02-28T02:09:43;100680.03;;;5.76;85.95
25944;BME280;13742;49.306;8.636;2024-02-28T02:10:43;100680.50;;;5.73;85.71
25944;BME280;13742;49.306;8.636;2024-02-28T02:11:43;100675.58;;;5.74;85.85
25944;BME280;13742;49.306;8.636;2024-02-28T02:12:43;100679.97;;;5.73;85.75
25944;BME280;13742;49.306;8.636;2024-02-28T02:14:47;100683.23;;;5.72;86.19
25944;BME280;13742;49.306;8.636;2024-02-28T02:15:43;100688.17;;;5.70;86.33
25944;BME280;13742;49.306;8.636;2024-02-28T02:16:43;100686.30;;;5.70;86.08
25944;BME280;13742;49.306;8.636;2024-02-28T02:17:43;100686.26;;;5.70;85.91
25944;BME280;13742;49.306;8.636;2024-02-28T02:18:43;100691.88;;;5.70;86.11
25944;BME280;13742;49.306;8.636;2024-02-28T02:19:43;100691.40;;;5.69;86.00
25944;BME280;13742;49.306;8.636;2024-02-28T02:20:43;100689.12;;;5.68;85.97
25944;BME280;13742;49.306;8.636;2024-02-28T02:22:43;100691.34;;;5.68;85.85
25944;BME280;13742;49.306;8.636;2024-02-28T02:23:43;100691.31;;;5.67;85.85
25944;BME280;13742;49.306;8.636;2024-02-28T02:24:43;100691.23;;;5.67;85.90
25944;BME280;13742;49.306;8.636;2024-02-28T02:25:46;100691.38;;;5.64;85.55
25944;BME280;13742;49.306;8.636;2024-02-28T02:26:45;100688.50;;;5.65;85.88
25944;BME280;13742;49.306;8.636;2024-02-28T02:27:43;100688.98;;;5.65;85.92
25944;BME280;13742;49.306;8.636;2024-02-28T02:28:43;100687.02;;;5.63;85.85
25944;BME280;13742;49.306;8.636;2024-02-28T02:29:43;100693.45;;;5.63;85.82
25944;BME280;13742;49.306;8.636;2024-02-28T02:30:43;100696.21;;;5.62;85.78
25944;BME280;13742;49.306;8.636;2024-02-28T02:31:43;100694.51;;;5.59;85.64
25944;BME280;13742;49.306;8.636;2024-02-28T02:32:43;100696.11;;;5.58;85.58
25944;BME280;13742;49.306;8.636;2024-02-28T02:33:43;100701.30;;;5.59;85.99
25944;BME280;13742;49.306;8.636;2024-02-28T02:34:43;100696.84;;;5.55;85.62
25944;BME280;13742;49.306;8.636;2024-02-28T02:35:43;100698.83;;;5.54;85.68
25944;BME280;13742;49.306;8.636;2024-02-28T02:36:43;100699.00;;;5.53;85.55
25944;BME280;13742;49.306;8.636;2024-02-28T02:37:43;100699.94;;;5.52;85.48
25944;BME280;13742;49.306;8.636;2024-02-28T02:38:43;100700.38;;;5.52;85.51
25944;BME280;13742;49.306;8.636;2024-02-28T02:39:43;100701.14;;;5.51;85.74
25944;BME280;13742;49.306;8.636;2024-02-28T02:40:43;100699.14;;;5.48;85.62
25944;BME280;13742;49.306;8.636;2024-02-28T02:41:43;100709.63;;;5.48;85.70
25944;BME280;13742;49.306;8.636;2024-02-28T02:42:43;100708.02;;;5.48;85.75
25944;BME280;13742;49.306;8.636;2024-02-28T02:43:43;100711.25;;;5.47;85.60
25944;BME280;13742;49.306;8.636;2024-02-28T02:44:43;100712.50;;;5.48;85.68
25944;BME280;13742;49.306;8.636;2024-02-28T02:45:43;100711.05;;;5.46;85.60
25944;BME280;13742;49.306;8.636;2024-02-28T02:46:43;100713.95;;;5.44;85.50
25944;BME280;13742;49.306;8.636;2024-02-28T02:47:46;100713.66;;;5.45;85.58
25944;BME280;13742;49.306;8.636;2024-02-28T02:48:43;100712.22;;;5.43;85.75
25944;BME280;13742;49.306;8.636;2024-02-28T02:49:43;100719.30;;;5.43;85.59
25944;BME280;13742;49.306;8.636;2024-02-28T02:50:43;100723.39;;;5.43;86.02
25944;BME280;13742;49.306;8.636;2024-02-28T02:51:43;100724.41;;;5.41;85.59
25944;BME280;13742;49.306;8.636;2024-02-28T02:52:43;100721.36;;;5.38;85.48
25944;BME280;13742;49.306;8.636;2024-02-28T02:53:43;100723.73;;;5.33;85.48
25944;BME280;13742;49.306;8.636;2024-02-28T02:54:43;100721.83;;;5.32;85.44
25944;BME280;13742;49.306;8.636;2024-02-28T02:55:43;100726.68;;;5.33;85.78
25944;BME280;13742;49.306;8.636;2024-02-28T02:56:43;100723.62;;;5.33;85.79
25944;BME280;13742;49.306;8.636;2024-02-28T02:57:43;100722.20;;;5.34;85.94
25944;BME280;13742;49.306;8.636;2024-02-28T02:58:43;100726.07;;;5.33;85.61
25944;BME280;13742;49.306;8.636;2024-02-28T02:59:43;100730.22;;;5.32;85.49
25944;BME280;13742;49.306;8.636;2024-02-28T03:00:43;100727.73;;;5.32;85.43
25944;BME280;13742;49.306;8.636;2024-02-28T03:01:43;100727.42;;;5.31;85.41
25944;BME280;13742;49.306;8.636;2024-02-28T03:02:43;100727.41;;;5.32;85.48
25944;BME280;13742;49.306;8.636;2024-02-28T03:03:43;100727.95;;;5.33;85.79
25944;BME280;13742;49.306;8.636;2024-02-28T03:04:43;100732.63;;;5.35;85.84
25944;BME280;13742;49.306;8.636;2024-02-28T03:05:43;100730.72;;;5.34;85.85
25944;BME280;13742;49.306;8.636;2024-02-28T03:06:43;100731.05;;;5.31;85.50
25944;BME280;13742;49.306;8.636;2024-02-28T03:07:43;100733.45;;;5.32;85.71
25944;BME280;13742;49.306;8.636;2024-02-28T03:08:43;100734.77;;;5.32;85.83
25944;BME280;13742;49.306;8.636;2024-02-28T03:09:43;100733.41;;;5.30;85.77
25944;BME280;13742;49.306;8.636;2024-02-28T03:10:43;100738.87;;;5.29;85.51
25944;BME280;13742;49.306;8.636;2024-02-28T03:11:43;100734.14;;;5.28;85.45
25944;BME280;13742;49.306;8.636;2024-02-28T03:12:43;100733.81;;;5.28;85.37
25944;BME280;13742;49.306;8.636;2024-02-28T03:13:43;100735.20;;;5.28;85.58
25944;BME280;13742;49.306;8.636;2024-02-28T03:14:43;100739.81;;;5.27;85.39
25944;BME280;13742;49.306;8.636;2024-02-28T03:15:43;100739.00;;;5.27;85.79
25944;BME280;13742;49.306;8.636;2024-02-28T03:16:43;100740.14;;;5.27;86.01
25944;BME280;13742;49.306;8.636;2024-02-28T03:17:43;100739.92;;;5.25;85.86
25944;BME280;13742;49.306;8.636;2024-02-28T03:18:43;100739.55;;;5.23;85.77
25944;BME280;13742;49.306;8.636;2024-02-28T03:19:43;100738.20;;;5.23;85.80
25944;BME280;13742;49.306;8.636;2024-02-28T03:20:43;100741.27;;;5.23;86.20
25944;BME280;13742;49.306;8.636;2024-02-28T03:21:43;100740.59;;;5.22;85.85
25944;BME280;13742;49.306;8.636;2024-02-28T03:22:43;100739.74;;;5.21;86.12
25944;BME280;13742;49.306;8.636;2024-02-28T03:23:43;100742.35;;;5.22;86.25
25944;BME280;13742;49.306;8.636;2024-02-28T03:24:43;100743.84;;;5.21;86.06
25944;BME280;13742;49.306;8.636;2024-02-28T03:25:43;100741.20;;;5.23;86.20
25944;BME280;13742;49.306;8.636;2024-02-28T03:26:43;100739.84;;;5.23;86.28
25944;BME280;13742;49.306;8.636;2024-02-28T03:27:43;100740.73;;;5.21;86.01
25944;BME280;13742;49.306;8.636;2024-02-28T03:28:43;100744.26;;;5.21;85.91
25944;BME280;13742;49.306;8.636;2024-02-28T03:29:43;100745.74;;;5.20;86.02
25944;BME280;13742;49.306;8.636;2024-02-28T03:30:43;100748.43;;;5.18;85.81
25944;BME280;13742;49.306;8.636;2024-02-28T03:31:43;100749.67;;;5.18;85.81
25944;BME280;13742;49.306;8.636;2024-02-28T03:32:43;100747.93;;;5.19;86.00
25944;BME280;13742;49.306;8.636;2024-02-28T03:33:43;100755.48;;;5.17;86.15
25944;BME280;13742;49.306;8.636;2024-02-28T03:34:43;100755.54;;;5.16;86.04
25944;BME280;13742;49.306;8.636;2024-02-28T03:35:43;100755.68;;;5.16;86.26
25944;BME280;13742;49.306;8.636;2024-02-28T03:36:43;100755.08;;;5.15;86.14
25944;BME280;13742;49.306;8.636;2024-02-28T03:37:43;100760.55;;;5.15;86.23
25944;BME280;13742;49.306;8.636;2024-02-28T03:38:43;100759.52;;;5.13;86.06
25944;BME280;13742;49.306;8.636;2024-02-28T03:39:43;100761.50;;;5.12;85.86
25944;BME280;13742;49.306;8.636;2024-02-28T03:40:43;100760.73;;;5.12;85.96
25944;BME280;13742;49.306;8.636;2024-02-28T03:41:43;100763.63;;;5.12;85.95
25944;BME280;13742;49.306;8.636;2024-02-28T03:42:43;100766.30;;;5.12;85.96
25944;BME280;13742;49.306;8.636;2024-02-28T03:43:43;100767.59;;;5.13;86.12
25944;BME280;13742;49.306;8.636;2024-02-28T03:44:43;100766.56;;;5.13;86.14
25944;BME280;13742;49.306;8.636;2024-02-28T03:45:43;100766.89;;;5.13;86.03
25944;BME280;13742;49.306;8.636;2024-02-28T03:46:43;100770.75;;;5.13;86.09
25944;BME280;13742;49.306;8.636;2024-02-28T03:47:43;100774.58;;;5.13;86.29
25944;BME280;13742;49.306;8.636;2024-02-28T03:48:43;100774.27;;;5.12;86.10
25944;BME280;13742;49.306;8.636;2024-02-28T03:49:42;100779.11;;;5.12;86.11
25944;BME280;13742;49.306;8.636;2024-02-28T03:50:43;100780.09;;;5.12;86.14
25944;BME280;13742;49.306;8.636;2024-02-28T03:51:43;100783.55;;;5.10;86.10
25944;BME280;13742;49.306;8.636;2024-02-28T03:52:43;100783.42;;;5.08;86.04
25944;BME280;13742;49.306;8.636;2024-02-28T03:53:42;100783.65;;;5.07;85.91
25944;BME280;13742;49.306;8.636;2024-02-28T03:54:43;100783.67;;;5.05;85.83
25944;BME280;13742;49.306;8.636;2024-02-28T03:55:46;100781.00;;;5.06;85.90
25944;BME280;13742;49.306;8.636;2024-02-28T03:56:42;100780.23;;;5.03;85.76
25944;BME280;13742;49.306;8.636;2024-02-28T03:57:46;100781.05;;;5.03;85.81
25944;BME280;13742;49.306;8.636;2024-02-28T03:58:42;100779.75;;;5.02;85.69
25944;BME280;13742;49.306;8.636;2024-02-28T03:59:42;100779.30;;;5.02;85.77
25944;BME280;13742;49.306;8.636;2024-02-28T04:00:44;100775.91;;;5.02;86.04
25944;BME280;13742;49.306;8.636;2024-02-28T04:01:42;100774.84;;;4.99;86.07
25944;BME280;13742;49.306;8.636;2024-02-28T04:02:43;100775.61;;;4.97;85.91
25944;BME280;13742;49.306;8.636;2024-02-28T04:03:42;100777.31;;;4.96;86.02
25944;BME280;13742;49.306;8.636;2024-02-28T04:04:43;100780.52;;;4.95;85.88
25944;BME280;13742;49.306;8.636;2024-02-28T04:05:42;100781.83;;;4.95;86.06
25944;BME280;13742;49.306;8.636;2024-02-28T04:06:42;100783.94;;;4.93;85.96
25944;BME280;13742;49.306;8.636;2024-02-28T04:07:42;100786.55;;;4.91;85.74
25944;BME280;13742;49.306;8.636;2024-02-28T04:08:43;100789.38;;;4.91;85.97
25944;BME280;13742;49.306;8.636;2024-02-28T04:09:43;100788.89;;;4.91;86.12
25944;BME280;13742;49.306;8.636;2024-02-28T04:10:42;100791.20;;;4.87;86.01
25944;BME280;13742;49.306;8.636;2024-02-28T04:11:43;100793.39;;;4.85;86.04
25944;BME280;13742;49.306;8.636;2024-02-28T04:12:43;100793.65;;;4.87;86.44
25944;BME280;13742;49.306;8.636;2024-02-28T04:13:42;100796.55;;;4.87;86.79
25944;BME280;13742;49.306;8.636;2024-02-28T04:14:43;100802.15;;;4.88;87.06
25944;BME280;13742;49.306;8.636;2024-02-28T04:15:45;100804.17;;;4.87;87.17
25944;BME280;13742;49.306;8.636;2024-02-28T04:16:45;100806.80;;;4.85;86.69
25944;BME280;13742;49.306;8.636;2024-02-28T04:17:43;100805.77;;;4.84;86.77
25944;BME280;13742;49.306;8.636;2024-02-28T04:18:43;100809.84;;;4.85;87.28
25944;BME280;13742;49.306;8.636;2024-02-28T04:19:42;100810.33;;;4.85;87.36
25944;BME280;13742;49.306;8.636;2024-02-28T04:20:43;100810.80;;;4.84;87.20
25944;BME280;13742;49.306;8.636;2024-02-28T04:21:42;100813.39;;;4.85;87.28
25944;BME280;13742;49.306;8.636;2024-02-28T04:22:42;100810.98;;;4.85;87.41
25944;BME280;13742;49.306;8.636;2024-02-28T04:23:44;100809.42;;;4.83;87.16
25944;BME280;13742;49.306;8.636;2024-02-28T04:24:42;100809.31;;;4.82;86.91
25944;BME280;13742;49.306;8.636;2024-02-28T04:25:42;100810.03;;;4.83;87.13
25944;BME280;13742;49.306;8.636;2024-02-28T04:26:42;100808.83;;;4.84;87.15
25944;BME280;13742;49.306;8.636;2024-02-28T04:27:44;100810.88;;;4.84;87.29
25944;BME280;13742;49.306;8.636;2024-02-28T04:28:42;100810.66;;;4.85;87.29
25944;BME280;13742;49.306;8.636;2024-02-28T04:29:42;100810.78;;;4.85;87.27
25944;BME280;13742;49.306;8.636;2024-02-28T04:30:43;100811.16;;;4.85;87.17
25944;BME280;13742;49.306;8.636;2024-02-28T04:31:42;100813.45;;;4.84;86.96
25944;BME280;13742;49.306;8.636;2024-02-28T04:32:42;100817.26;;;4.84;86.95
25944;BME280;13742;49.306;8.636;2024-02-28T04:33:42;100811.13;;;4.81;87.08
25944;BME280;13742;49.306;8.636;2024-02-28T04:34:42;100813.66;;;4.81;86.86
25944;BME280;13742;49.306;8.636;2024-02-28T04:35:43;100812.75;;;4.78;86.94
25944;BME280;13742;49.306;8.636;2024-02-28T04:36:43;100813.80;;;4.77;86.82
25944;BME280;13742;49.306;8.636;2024-02-28T04:37:42;100813.21;;;4.78;87.23
25944;BME280;13742;49.306;8.636;2024-02-28T04:38:42;100814.66;;;4.77;87.30
25944;BME280;13742;49.306;8.636;2024-02-28T04:39:42;100819.05;;;4.76;87.08
25944;BME280;13742;49.306;8.636;2024-02-28T04:40:42;100817.61;;;4.74;87.15
25944;BME280;13742;49.306;8.636;2024-02-28T04:41:42;100819.13;;;4.73;87.15
25944;BME280;13742;49.306;8.636;2024-02-28T04:42:43;100822.14;;;4.68;86.82
25944;BME280;13742;49.306;8.636;2024-02-28T04:43:42;100821.69;;;4.56;86.99
25944;BME280;13742;49.306;8.636;2024-02-28T04:44:42;100823.52;;;4.51;87.22
25944;BME280;13742;49.306;8.636;2024-02-28T04:45:42;100828.86;;;4.52;87.40
25944;BME280;13742;49.306;8.636;2024-02-28T04:46:42;100823.76;;;4.51;87.12
25944;BME280;13742;49.306;8.636;2024-02-28T04:47:43;100825.65;;;4.51;86.75
25944;BME280;13742;49.306;8.636;2024-02-28T04:48:42;100828.48;;;4.50;86.73
25944;BME280;13742;49.306;8.636;2024-02-28T04:49:42;100827.08;;;4.50;86.97
25944;BME280;13742;49.306;8.636;2024-02-28T04:50:42;100823.69;;;4.50;87.06
25944;BME280;13742;49.306;8.636;2024-02-28T04:51:42;100825.39;;;4.51;87.00
25944;BME280;13742;49.306;8.636;2024-02-28T04:52:43;100820.91;;;4.50;86.99
25944;BME280;13742;49.306;8.636;2024-02-28T04:53:43;100822.05;;;4.51;86.94
25944;BME280;13742;49.306;8.636;2024-02-28T04:54:42;100823.36;;;4.51;86.82
25944;BME280;13742;49.306;8.636;2024-02-28T04:55:43;100824.99;;;4.51;86.74
25944;BME280;13742;49.306;8.636;2024-02-28T04:56:43;100825.38;;;4.50;86.58
25944;BME280;13742;49.306;8.636;2024-02-28T04:57:42;100821.67;;;4.48;86.34
25944;BME280;13742;49.306;8.636;2024-02-28T04:58:42;100823.41;;;4.47;86.32
25944;BME280;13742;49.306;8.636;2024-02-28T04:59:44;100823.25;;;4.47;86.45
25944;BME280;13742;49.306;8.636;2024-02-28T05:00:42;100824.34;;;4.47;86.52
25944;BME280;13742;49.306;8.636;2024-02-28T05:01:43;100827.83;;;4.47;86.44
25944;BME280;13742;49.306;8.636;2024-02-28T05:02:43;100826.60;;;4.46;86.50
25944;BME280;13742;49.306;8.636;2024-02-28T05:03:42;100831.54;;;4.47;86.52
25944;BME280;13742;49.306;8.636;2024-02-28T05:04:43;100829.71;;;4.46;86.39
25944;BME280;13742;49.306;8.636;2024-02-28T05:05:42;100834.30;;;4.46;86.31
25944;BME280;13742;49.306;8.636;2024-02-28T05:06:42;100833.55;;;4.46;86.46
25944;BME280;13742;49.306;8.636;2024-02-28T05:07:42;100838.38;;;4.46;86.56
25944;BME280;13742;49.306;8.636;2024-02-28T05:08:42;100841.86;;;4.46;86.69
25944;BME280;13742;49.306;8.636;2024-02-28T05:09:43;100841.05;;;4.45;86.83
25944;BME280;13742;49.306;8.636;2024-02-28T05:10:42;100843.75;;;4.42;87.18
25944;BME280;13742;49.306;8.636;2024-02-28T05:11:43;100852.70;;;4.28;87.31
25944;BME280;13742;49.306;8.636;2024-02-28T05:12:42;100855.08;;;4.31;87.72
25944;BME280;13742;49.306;8.636;2024-02-28T05:13:42;100853.02;;;4.31;87.50
25944;BME280;13742;49.306;8.636;2024-02-28T05:14:42;100853.66;;;4.31;86.95
25944;BME280;13742;49.306;8.636;2024-02-28T05:15:42;100856.67;;;4.30;87.23
25944;BME280;13742;49.306;8.636;2024-02-28T05:16:42;100857.98;;;4.27;86.80
25944;BME280;13742;49.306;8.636;2024-02-28T05:17:42;100860.47;;;4.25;86.70
25944;BME280;13742;49.306;8.636;2024-02-28T05:18:45;100858.36;;;4.26;86.73
25944;BME280;13742;49.306;8.636;2024-02-28T05:19:42;100861.44;;;4.25;86.81
25944;BME280;13742;49.306;8.636;2024-02-28T05:20:42;100866.00;;;4.27;87.04
25944;BME280;13742;49.306;8.636;2024-02-28T05:21:42;100866.90;;;4.16;86.88